Time;durP1;ratioP1;P1;durP2;ratioP2;P2;SDS_P1;SDS_P2;PMS_P1;PMS_P2;Temp;Humidity;BMP_temperature;BMP_pressure;BME280_temperature;BME280_humidity;BME280_pressure;Samples;Min_cycle;Max_cycle;Signal;HPM_P1;HPM_P2
2022/04/27 00:00:58;;;;;;;;;11.75;10.50;;;;;12.32;46.11;101543.03;5014206;28;45669;-50
2022/04/27 00:03:24;;;;;;;;;10.00;10.00;;;;;12.36;46.26;101540.72;5014353;28;45481;-54
2022/04/27 00:05:50;;;;;;;;;12.25;11.00;;;;;12.24;46.07;101516.56;5014789;28;45589;-54
2022/04/27 00:08:15;;;;;;;;;14.00;12.75;;;;;12.36;46.04;101544.34;5013611;28;45716;-50
2022/04/27 00:10:41;;;;;;;;;13.00;12.00;;;;;12.28;46.38;101547.28;5015559;28;45389;-55
2022/04/27 00:13:06;;;;;;;;;17.50;15.75;;;;;12.09;46.25;101543.34;5030590;28;45516;-49
2022/04/27 00:15:32;;;;;;;;;14.75;11.75;;;;;12.18;46.93;101547.66;5014414;28;45468;-51
2022/04/27 00:17:57;;;;;;;;;12.50;12.50;;;;;12.22;46.37;101545.34;5015176;28;45870;-50
2022/04/27 00:20:23;;;;;;;;;13.75;9.25;;;;;12.12;46.46;101538.28;5013878;28;45496;-50
2022/04/27 00:22:49;;;;;;;;;16.00;15.25;;;;;12.21;46.43;101544.47;5014280;28;45462;-49
2022/04/27 00:25:16;;;;;;;;;14.00;13.25;;;;;12.25;46.38;101554.03;5013887;28;45342;-53
2022/04/27 00:27:42;;;;;;;;;15.60;13.20;;;;;12.19;46.76;101552.09;5014918;28;45627;-50
2022/04/27 00:30:08;;;;;;;;;13.75;11.00;;;;;12.08;46.90;101559.00;5015359;28;45366;-55
2022/04/27 00:32:34;;;;;;;;;12.00;11.40;;;;;12.10;46.96;101545.06;5013598;28;45393;-50
2022/04/27 00:35:00;;;;;;;;;12.00;10.80;;;;;11.99;46.51;101532.66;5015427;28;45468;-48
2022/04/27 00:37:25;;;;;;;;;16.00;15.60;;;;;12.13;46.54;101542.75;5014745;28;45426;-55
2022/04/27 00:39:51;;;;;;;;;15.75;13.50;;;;;12.19;46.51;101555.72;5015106;28;45492;-50
2022/04/27 00:42:18;;;;;;;;;8.75;8.50;;;;;12.20;46.36;101553.78;5013756;28;45393;-51
2022/04/27 00:44:44;;;;;;;;;15.20;12.80;;;;;12.07;46.31;101525.13;5015649;28;45483;-53
2022/04/27 00:47:11;;;;;;;;;13.25;10.75;;;;;12.14;46.41;101546.34;5001732;28;45770;-51
2022/04/27 00:49:40;;;;;;;;;10.20;9.40;;;;;11.92;46.60;101518.88;5034501;28;45226;-49
2022/04/27 00:52:05;;;;;;;;;13.80;13.80;;;;;12.16;46.70;101550.59;5034023;28;46028;-52
2022/04/27 00:54:31;;;;;;;;;12.00;10.50;;;;;11.98;46.66;101530.97;5034906;28;45538;-52
2022/04/27 00:56:56;;;;;;;;;13.75;11.50;;;;;11.99;46.80;101550.03;5033608;28;46944;-50
2022/04/27 00:59:23;;;;;;;;;17.00;13.25;;;;;11.91;47.16;101541.94;5010977;28;45405;-49
2022/04/27 01:01:48;;;;;;;;;12.00;12.00;;;;;11.82;47.29;101548.63;5015198;28;45395;-51
2022/04/27 01:04:14;;;;;;;;;12.75;12.75;;;;;11.72;47.41;101541.59;5015352;28;45468;-50
2022/04/27 01:06:39;;;;;;;;;9.75;9.75;;;;;11.75;47.71;101543.09;5013697;28;46053;-53
2022/04/27 01:09:05;;;;;;;;;12.75;12.75;;;;;11.82;47.45;101538.50;5016755;28;45716;-55
2022/04/27 01:11:32;;;;;;;;;12.25;11.25;;;;;11.83;47.29;101539.31;5017417;28;45358;-49
2022/04/27 01:13:57;;;;;;;;;16.00;11.20;;;;;11.59;46.90;101495.59;5018394;28;45195;-54
2022/04/27 01:16:23;;;;;;;;;13.25;11.25;;;;;11.60;47.11;101510.19;5017282;28;46380;-53
2022/04/27 01:18:50;;;;;;;;;11.50;11.50;;;;;11.77;47.49;101541.84;5016870;28;45405;-53
2022/04/27 01:21:15;;;;;;;;;15.60;13.80;;;;;11.73;47.58;101543.28;5018212;28;45393;-50
2022/04/27 01:23:41;;;;;;;;;14.50;11.00;;;;;11.74;47.58;101535.91;5018543;28;45389;-50
2022/04/27 01:26:07;;;;;;;;;11.25;11.25;;;;;11.71;47.46;101520.66;5017737;28;46381;-50
2022/04/27 01:28:35;;;;;;;;;14.40;12.00;;;;;11.82;47.27;101543.13;5018147;28;45944;-51
2022/04/27 01:31:07;;;;;;;;;11.20;11.20;;;;;11.82;46.89;101541.25;5017906;28;45287;-51
2022/04/27 01:33:35;;;;;;;;;14.60;14.60;;;;;11.73;47.60;101534.19;5018262;28;45349;-53
2022/04/27 01:36:02;;;;;;;;;14.80;12.60;;;;;11.58;47.98;101534.31;5017702;28;46161;-51
2022/04/27 01:38:36;;;;;;;;;14.60;13.20;;;;;11.44;48.03;101539.69;5016308;28;45430;-49
2022/04/27 01:41:02;;;;;;;;;13.20;11.00;;;;;11.32;48.87;101533.84;5017908;28;45449;-51
2022/04/27 01:43:29;;;;;;;;;13.80;13.20;;;;;11.30;48.41;101540.63;5018363;28;45567;-50
2022/04/27 01:45:55;;;;;;;;;17.40;15.00;;;;;11.30;48.92;101535.13;5016221;28;45603;-51
2022/04/27 01:48:20;;;;;;;;;11.75;11.75;;;;;11.03;48.32;101480.78;5017687;28;45393;-50
2022/04/27 01:50:46;;;;;;;;;12.25;11.00;;;;;11.24;48.79;101536.75;5016355;28;45319;-52
2022/04/27 01:55:55;;;;;;;;;19.40;15.00;;;;;11.37;48.77;101534.13;5017406;28;45413;-49
2022/04/27 01:58:22;;;;;;;;;15.25;14.50;;;;;11.25;49.33;101535.69;5017301;28;45424;-53
2022/04/27 02:00:47;;;;;;;;;16.80;15.60;;;;;11.18;48.96;101538.41;5008659;28;45555;-56
2022/04/27 02:03:14;;;;;;;;;17.25;14.00;;;;;11.27;49.09;101544.63;5033272;28;45413;-51
2022/04/27 02:05:40;;;;;;;;;15.80;14.80;;;;;11.29;49.03;101545.25;5032815;28;45444;-51
2022/04/27 02:08:05;;;;;;;;;18.00;17.00;;;;;11.37;48.71;101558.03;5036169;28;45301;-54
2022/04/27 02:10:31;;;;;;;;;14.50;13.00;;;;;11.23;48.71;101546.03;5033700;28;45425;-51
2022/04/27 02:12:56;;;;;;;;;14.50;14.50;;;;;11.28;49.04;101550.94;5036246;28;45464;-53
2022/04/27 02:15:24;;;;;;;;;13.50;12.25;;;;;11.09;49.66;101517.56;5035497;28;45382;-53
2022/04/27 02:17:50;;;;;;;;;22.00;18.00;;;;;11.25;49.33;101547.56;5034844;28;45875;-51
2022/04/27 02:20:19;;;;;;;;;15.50;13.25;;;;;11.17;49.34;101558.69;5035379;28;45703;-50
2022/04/27 02:22:45;;;;;;;;;17.00;14.60;;;;;11.19;49.29;101550.22;5035815;28;45350;-51
2022/04/27 02:25:11;;;;;;;;;21.80;17.60;;;;;11.29;49.17;101549.88;5036411;28;45639;-50
2022/04/27 02:27:36;;;;;;;;;16.75;14.50;;;;;11.00;49.65;101505.91;5036956;28;45346;-51
2022/04/27 02:30:05;;;;;;;;;21.00;17.50;;;;;11.22;49.49;101545.19;5036754;28;45372;-53
2022/04/27 02:32:31;;;;;;;;;20.20;18.60;;;;;11.27;49.52;101550.13;5036709;28;45485;-51
2022/04/27 02:34:56;;;;;;;;;14.50;14.00;;;;;11.29;48.74;101547.16;5036534;28;46851;-52
2022/04/27 02:37:22;;;;;;;;;21.50;20.50;;;;;11.22;48.78;101552.59;5035449;28;45412;-52
2022/04/27 02:39:47;;;;;;;;;20.00;14.50;;;;;11.19;49.12;101550.22;5036690;28;45440;-52
2022/04/27 02:42:13;;;;;;;;;18.50;17.50;;;;;11.28;48.77;101560.06;5035659;28;45452;-49
2022/04/27 02:44:39;;;;;;;;;14.75;14.75;;;;;11.24;49.34;101553.25;5035011;28;45403;-50
2022/04/27 02:47:04;;;;;;;;;15.75;15.25;;;;;11.26;49.85;101551.13;5036494;28;45377;-48
2022/04/27 02:52:14;;;;;;;;;22.00;19.00;;;;;11.23;49.92;101546.03;5036661;28;45713;-52
2022/04/27 02:54:40;;;;;;;;;16.25;15.75;;;;;11.32;49.17;101544.03;5018391;28;46967;-54
2022/04/27 02:57:06;;;;;;;;;23.00;17.00;;;;;11.11;49.79;101510.00;5035154;28;45324;-51
2022/04/27 02:59:33;;;;;;;;;17.60;16.20;;;;;11.20;49.29;101544.53;5035583;28;45498;-52
2022/04/27 03:01:58;;;;;;;;;15.80;15.60;;;;;11.06;50.38;101548.22;5016751;28;45455;-51
2022/04/27 03:04:23;;;;;;;;;17.75;14.50;;;;;11.00;50.48;101538.00;5016056;28;45964;-52
2022/04/27 03:06:49;;;;;;;;;19.25;16.50;;;;;11.08;50.30;101543.34;5016156;28;45751;-49
2022/04/27 03:09:14;;;;;;;;;23.75;17.75;;;;;11.02;50.21;101538.66;5014864;28;45427;-53
2022/04/27 03:11:40;;;;;;;;;17.75;16.50;;;;;11.07;50.05;101536.16;5016478;28;45243;-50
2022/04/27 03:14:05;;;;;;;;;20.25;17.75;;;;;11.09;49.94;101532.19;5015968;28;45464;-50
2022/04/27 03:16:31;;;;;;;;;9.50;7.50;;;;;11.02;49.93;101527.66;5016093;28;45235;-53
2022/04/27 03:18:56;;;;;;;;;22.00;17.75;;;;;11.01;50.67;101535.06;5016376;28;45379;-50
2022/04/27 03:21:22;;;;;;;;;18.75;14.25;;;;;11.06;50.06;101531.72;5016270;28;46018;-51
2022/04/27 03:23:47;;;;;;;;;24.00;21.00;;;;;11.04;49.96;101531.06;5047785;28;47598;-50
2022/04/27 03:26:13;;;;;;;;;21.00;16.75;;;;;10.85;50.18;101493.06;5014302;28;46236;-48
2022/04/27 03:28:38;;;;;;;;;19.50;17.75;;;;;11.09;50.93;101528.56;5015759;28;45559;-54
2022/04/27 03:31:04;;;;;;;;;21.25;15.75;;;;;11.06;50.34;101534.47;5015123;28;45389;-50
2022/04/27 03:33:29;;;;;;;;;21.50;18.50;;;;;10.90;51.00;101532.81;5016032;28;46660;-53
2022/04/27 03:35:55;;;;;;;;;25.25;21.50;;;;;10.70;50.93;101506.84;5015343;28;45335;-51
2022/04/27 03:38:20;;;;;;;;;25.00;25.00;;;;;10.81;52.09;101534.84;5015969;28;45344;-52
2022/04/27 03:40:46;;;;;;;;;25.25;21.50;;;;;10.48;51.67;101500.47;5014292;28;45535;-52
2022/04/27 03:43:13;;;;;;;;;25.20;21.00;;;;;10.61;52.74;101537.38;5015687;28;45485;-51
2022/04/27 03:45:38;;;;;;;;;26.20;23.00;;;;;10.58;51.87;101528.44;5014178;28;45322;-50
2022/04/27 03:48:04;;;;;;;;;28.75;23.00;;;;;10.66;52.00;101518.41;5015661;28;45256;-52
2022/04/27 03:50:29;;;;;;;;;24.50;21.50;;;;;10.72;51.41;101520.38;5015792;28;45651;-50
2022/04/27 03:52:55;;;;;;;;;21.50;19.50;;;;;10.63;51.81;101500.44;5013782;28;46939;-53
2022/04/27 03:55:20;;;;;;;;;22.00;20.50;;;;;10.66;51.16;101499.19;5015533;28;45368;-52
2022/04/27 03:57:46;;;;;;;;;24.25;22.75;;;;;10.54;51.79;101491.47;5015245;28;45496;-49
2022/04/27 04:00:11;;;;;;;;;25.50;21.50;;;;;10.76;52.32;101529.06;5015741;28;45510;-54
2022/04/27 04:02:37;;;;;;;;;27.00;22.75;;;;;10.79;51.69;101532.28;5014136;28;47623;-53
2022/04/27 04:05:04;;;;;;;;;22.50;19.00;;;;;10.76;51.95;101529.06;5007310;28;45553;-50
2022/04/27 04:07:30;;;;;;;;;23.20;22.20;;;;;10.45;51.95;101484.38;5011074;28;45342;-50
2022/04/27 04:09:55;;;;;;;;;27.00;22.50;;;;;10.74;51.89;101539.41;5013481;28;45548;-51
2022/04/27 04:12:21;;;;;;;;;27.25;22.50;;;;;10.50;51.92;101503.88;5014190;28;45864;-52
2022/04/27 04:14:46;;;;;;;;;33.25;26.00;;;;;10.55;52.30;101506.88;5013021;28;46056;-54
2022/04/27 04:17:12;;;;;;;;;25.50;23.00;;;;;10.78;52.23;101540.72;5015567;28;45243;-51
2022/04/27 04:19:38;;;;;;;;;21.75;21.25;;;;;10.60;52.87;101546.63;5012093;28;45271;-51
2022/04/27 04:22:04;;;;;;;;;26.20;21.60;;;;;10.43;53.33;101531.25;5012758;28;46538;-54
2022/04/27 04:24:30;;;;;;;;;24.75;21.00;;;;;10.44;52.94;101543.94;5028208;28;45435;-51
2022/04/27 04:29:39;;;;;;;;;26.60;23.60;;;;;10.38;53.69;101541.91;5013023;28;45377;-53
2022/04/27 04:32:05;;;;;;;;;29.00;28.50;;;;;10.04;53.93;101513.19;5014872;28;46113;-52
2022/04/27 04:34:30;;;;;;;;;29.75;26.25;;;;;10.08;54.44;101554.78;5015378;28;45385;-51
2022/04/27 04:36:56;;;;;;;;;30.50;27.50;;;;;10.08;54.07;101552.88;5015340;28;45325;-50
2022/04/27 04:39:21;;;;;;;;;29.50;23.50;;;;;9.76;54.73;101513.81;5015639;28;46028;-51
2022/04/27 04:41:47;;;;;;;;;35.50;29.50;;;;;10.19;54.34;101554.28;5014065;28;46854;-50
2022/04/27 04:44:12;;;;;;;;;30.75;24.75;;;;;10.22;54.28;101561.31;5018675;28;45346;-52
2022/04/27 04:46:37;;;;;;;;;33.75;24.50;;;;;10.14;54.23;101552.13;5018843;28;45494;-53
2022/04/27 04:49:03;;;;;;;;;30.00;25.75;;;;;10.08;54.23;101568.50;5018981;28;45484;-48
2022/04/27 04:51:29;;;;;;;;;33.50;26.75;;;;;9.98;54.60;101544.09;5018572;28;46054;-49
2022/04/27 04:53:54;;;;;;;;;23.25;22.75;;;;;9.93;53.82;101538.31;5018845;28;45349;-49
2022/04/27 04:56:20;;;;;;;;;31.75;28.75;;;;;10.20;54.05;101566.13;5018879;28;45296;-52
2022/04/27 04:58:45;;;;;;;;;26.00;24.75;;;;;10.22;53.93;101570.41;5018609;28;45635;-51
2022/04/27 05:01:11;;;;;;;;;30.25;24.75;;;;;10.21;54.45;101559.59;5016944;28;45433;-49
2022/04/27 05:03:38;;;;;;;;;29.75;27.00;;;;;10.19;54.12;101569.94;5018122;28;45287;-53
2022/04/27 05:06:04;;;;;;;;;30.20;26.00;;;;;10.12;55.25;101570.69;5018396;28;45351;-51
2022/04/27 05:08:29;;;;;;;;;31.00;30.00;;;;;10.21;54.53;101576.06;5000629;28;45361;-50
2022/04/27 05:10:55;;;;;;;;;25.75;21.00;;;;;10.27;54.36;101564.34;5018197;28;46864;-55
2022/04/27 05:13:20;;;;;;;;;30.50;27.75;;;;;10.30;54.02;101574.94;5016794;28;45441;-51
2022/04/27 05:15:45;;;;;;;;;31.50;28.50;;;;;10.14;54.09;101543.91;5016733;28;45362;-51
2022/04/27 05:18:11;;;;;;;;;31.25;27.25;;;;;10.11;54.19;101554.41;5018184;28;45583;-54
2022/04/27 05:20:38;;;;;;;;;34.25;31.50;;;;;10.15;55.08;101583.16;5018089;28;46182;-55
2022/04/27 05:23:04;;;;;;;;;35.20;25.20;;;;;10.15;55.01;101585.91;5018009;28;45584;-58
2022/04/27 05:25:30;;;;;;;;;31.80;27.20;;;;;10.20;54.18;101590.81;5017942;28;45371;-52
2022/04/27 05:27:55;;;;;;;;;30.50;30.00;;;;;10.08;55.48;101587.72;5018036;28;45598;-50
2022/04/27 05:33:05;;;;;;;;;33.80;29.80;;;;;10.13;55.33;101594.31;5017682;28;45421;-49
2022/04/27 05:35:30;;;;;;;;;37.00;29.75;;;;;10.11;54.44;101593.66;5017831;28;45201;-50
2022/04/27 05:37:56;;;;;;;;;33.25;29.00;;;;;10.15;54.87;101599.63;5017102;28;45511;-50
2022/04/27 05:40:22;;;;;;;;;35.25;29.25;;;;;10.24;54.02;101608.63;5017161;28;45354;-50
2022/04/27 05:42:48;;;;;;;;;33.40;29.00;;;;;10.13;55.06;101605.28;5016365;28;45409;-51
2022/04/27 05:45:14;;;;;;;;;33.50;29.25;;;;;10.15;55.14;101608.69;5017923;28;45276;-52
2022/04/27 05:47:40;;;;;;;;;35.00;28.00;;;;;10.24;54.51;101620.44;5017575;28;45515;-51
2022/04/27 05:50:05;;;;;;;;;33.25;29.50;;;;;10.22;54.90;101616.19;5016348;28;45415;-54
2022/04/27 05:52:45;;;;;;;;;37.00;31.00;;;;;10.16;54.93;101613.13;5017058;28;45472;-54
2022/04/27 05:55:11;;;;;;;;;36.80;31.60;;;;;10.04;55.29;101598.22;5016934;28;45348;-53
2022/04/27 05:57:36;;;;;;;;;31.50;27.50;;;;;10.12;55.46;101628.28;5017004;28;45324;-53
2022/04/27 06:00:02;;;;;;;;;29.25;26.25;;;;;9.72;54.72;101548.97;5017380;28;46070;-53
2022/04/27 06:02:28;;;;;;;;;35.00;30.20;;;;;10.04;55.74;101615.50;5016367;28;45390;-52
2022/04/27 06:04:54;;;;;;;;;37.40;30.40;;;;;10.10;55.34;101633.13;5017467;28;45353;-51
2022/04/27 06:07:19;;;;;;;;;34.00;31.75;;;;;9.95;55.63;101582.84;5017850;28;45349;-51
2022/04/27 06:09:45;;;;;;;;;38.75;35.50;;;;;10.30;54.74;101624.34;5017308;28;45432;-51
2022/04/27 06:12:10;;;;;;;;;38.25;32.00;;;;;10.36;55.49;101619.97;5017543;28;45913;-52
2022/04/27 06:14:36;;;;;;;;;41.25;33.75;;;;;10.51;54.80;101633.75;5017589;28;45433;-54
2022/04/27 06:17:02;;;;;;;;;32.00;28.50;;;;;10.63;53.85;101642.34;5017441;28;45393;-49
2022/04/27 06:19:27;;;;;;;;;34.50;33.50;;;;;10.58;53.76;101635.50;5017434;28;45457;-52
2022/04/27 06:21:53;;;;;;;;;37.25;32.25;;;;;10.68;53.65;101639.88;5016890;28;45404;-50
2022/04/27 06:24:18;;;;;;;;;35.50;31.50;;;;;10.50;53.56;101618.28;5017584;28;45409;-53
2022/04/27 06:26:44;;;;;;;;;32.25;28.50;;;;;10.57;54.22;101644.78;5017201;28;45377;-49
2022/04/27 06:29:09;;;;;;;;;42.25;32.00;;;;;10.58;53.73;101643.75;5015733;28;46587;-51
2022/04/27 06:31:35;;;;;;;;;39.00;34.00;;;;;10.38;54.52;101621.50;5017268;28;45436;-52
2022/04/27 06:34:00;;;;;;;;;36.25;31.50;;;;;10.67;53.92;101657.41;5017060;28;45308;-52
2022/04/27 06:36:26;;;;;;;;;40.50;32.25;;;;;10.67;53.87;101658.22;5017601;28;45503;-54
2022/04/27 06:38:51;;;;;;;;;38.25;32.00;;;;;10.73;53.73;101661.25;5016441;28;45711;-50
2022/04/27 06:41:17;;;;;;;;;37.50;34.50;;;;;10.60;54.10;101657.28;4987362;28;45768;-53
2022/04/27 06:43:42;;;;;;;;;41.75;26.75;;;;;10.58;54.72;101667.63;5017113;28;45298;-50
2022/04/27 06:46:08;;;;;;;;;49.25;35.50;;;;;10.56;54.20;101662.31;5017188;28;45507;-54
2022/04/27 06:48:33;;;;;;;;;38.50;31.00;;;;;10.56;54.85;101659.56;5016458;28;45785;-52
2022/04/27 06:50:59;;;;;;;;;42.00;29.50;;;;;10.45;55.25;101665.53;5016800;28;45385;-52
2022/04/27 06:53:24;;;;;;;;;41.50;36.00;;;;;10.56;54.78;101672.44;5016509;28;45394;-53
2022/04/27 06:55:50;;;;;;;;;47.25;37.50;;;;;10.60;54.82;101661.91;5016910;28;45414;-52
2022/04/27 06:58:16;;;;;;;;;34.50;32.00;;;;;10.70;54.39;101666.09;5014759;28;48370;-51
2022/04/27 07:00:41;;;;;;;;;39.40;32.20;;;;;10.66;54.32;101664.78;5014938;28;45545;-51
2022/04/27 07:03:07;;;;;;;;;44.00;34.75;;;;;10.70;54.45;101668.00;5014816;28;45429;-50
2022/04/27 07:05:32;;;;;;;;;41.50;33.25;;;;;10.77;54.80;101671.66;5016611;28;45516;-49
2022/04/27 07:07:58;;;;;;;;;37.75;32.75;;;;;10.67;54.26;101646.41;5015973;28;45859;-49
2022/04/27 07:10:24;;;;;;;;;39.40;32.40;;;;;10.98;53.40;101687.38;4998373;28;45856;-56
2022/04/27 07:12:49;;;;;;;;;42.75;36.00;;;;;10.98;54.01;101687.38;5014611;28;45465;-49
2022/04/27 07:15:15;;;;;;;;;42.75;36.75;;;;;11.00;53.40;101680.84;4987380;28;45650;-52
2022/04/27 07:17:40;;;;;;;;;42.75;33.75;;;;;11.10;53.48;101684.16;5011809;28;46181;-50
2022/04/27 07:20:06;;;;;;;;;36.25;34.75;;;;;11.02;53.38;101690.59;5020003;28;45697;-50
2022/04/27 07:22:32;;;;;;;;;38.40;34.80;;;;;10.99;53.40;101685.47;5001766;28;45528;-50
2022/04/27 07:24:57;;;;;;;;;45.25;36.00;;;;;10.93;54.03;101689.84;5010131;28;45678;-53
2022/04/27 07:27:23;;;;;;;;;39.75;34.00;;;;;11.00;54.02;101689.94;5009182;28;46796;-52
2022/04/27 07:29:48;;;;;;;;;31.25;28.00;;;;;10.93;53.92;101689.84;5022268;28;45361;-51
2022/04/27 07:32:14;;;;;;;;;44.50;38.00;;;;;10.89;54.78;101698.66;5029564;28;45457;-51
2022/04/27 07:34:39;;;;;;;;;43.00;38.00;;;;;10.84;55.04;101686.34;5029400;28;45420;-57
2022/04/27 07:37:05;;;;;;;;;37.50;32.75;;;;;10.89;54.64;101688.50;5030519;28;45698;-50
2022/04/27 07:39:31;;;;;;;;;37.50;32.75;;;;;10.87;54.26;101660.38;5016160;28;45488;-55
2022/04/27 07:41:57;;;;;;;;;46.40;36.40;;;;;11.26;53.42;101696.78;4993747;28;45508;-54
2022/04/27 07:44:22;;;;;;;;;45.50;35.75;;;;;11.42;53.16;101692.13;5012689;28;45688;-52
2022/04/27 07:46:48;;;;;;;;;40.50;36.25;;;;;11.27;53.17;101646.28;5009973;28;46061;-55
2022/04/27 07:49:15;;;;;;;;;44.00;37.25;;;;;11.44;52.52;101671.63;5026751;28;45465;-53
2022/04/27 07:51:40;;;;;;;;;46.00;39.40;;;;;11.72;52.75;101694.75;5029109;28;45492;-54
2022/04/27 07:54:05;;;;;;;;;46.75;37.50;;;;;11.68;52.46;101686.03;5028542;28;45479;-55
2022/04/27 07:56:31;;;;;;;;;45.75;35.25;;;;;11.79;52.01;101706.66;5020131;28;45879;-52
2022/04/27 07:58:56;;;;;;;;;43.00;37.25;;;;;11.60;52.77;101667.78;5024749;28;45886;-56
2022/04/27 08:01:22;;;;;;;;;42.75;35.25;;;;;11.85;52.17;101702.28;5019429;28;45506;-55
2022/04/27 08:03:47;;;;;;;;;44.50;36.00;;;;;11.74;52.18;101666.00;5010533;28;45558;-54
2022/04/27 08:06:13;;;;;;;;;32.00;27.50;;;;;11.75;52.34;101667.69;5009745;28;46544;-51
2022/04/27 08:08:38;;;;;;;;;42.75;36.25;;;;;12.01;52.23;101698.41;5025598;28;46002;-53
2022/04/27 08:11:04;;;;;;;;;40.25;35.50;;;;;11.95;52.52;101697.28;5009986;28;45519;-52
2022/04/27 08:13:31;;;;;;;;;36.00;35.25;;;;;11.80;52.30;101661.63;5002012;28;45578;-53
2022/04/27 08:15:57;;;;;;;;;43.40;35.60;;;;;11.99;52.30;101693.09;5011122;28;46879;-53
2022/04/27 08:18:22;;;;;;;;;42.25;36.75;;;;;12.14;51.74;101701.31;5008924;28;45472;-54
2022/04/27 08:23:34;;;;;;;;;43.60;35.60;;;;;12.32;51.68;101709.06;5028048;28;45539;-49
2022/04/27 08:26:03;;;;;;;;;46.60;38.00;;;;;11.71;52.01;101605.91;5030986;28;45887;-53
2022/04/27 08:28:29;;;;;;;;;43.40;34.80;;;;;12.35;51.35;101710.56;5029395;28;45421;-58
2022/04/27 08:30:55;;;;;;;;;54.50;39.50;;;;;12.42;51.29;101705.09;5029662;28;45751;-53
2022/04/27 08:33:20;;;;;;;;;45.75;37.00;;;;;12.37;51.49;101691.94;5029398;28;45718;-53
2022/04/27 08:35:46;;;;;;;;;46.50;35.75;;;;;12.17;51.86;101675.28;5030663;28;46506;-53
2022/04/27 08:38:12;;;;;;;;;44.60;34.20;;;;;12.38;51.80;101698.31;5020760;28;45950;-56
2022/04/27 08:40:41;;;;;;;;;47.50;37.25;;;;;12.48;51.48;101707.03;5033534;28;45574;-51
2022/04/27 08:43:09;;;;;;;;;38.80;34.60;;;;;12.46;51.25;101681.63;5012260;28;45670;-55
2022/04/27 08:45:35;;;;;;;;;47.00;37.00;;;;;12.73;51.24;101710.19;5028573;28;46524;-55
2022/04/27 08:48:00;;;;;;;;;42.75;35.00;;;;;12.79;51.09;101707.66;5029106;28;45583;-56
2022/04/27 08:50:26;;;;;;;;;40.75;35.00;;;;;12.77;50.97;101707.88;5029054;28;45777;-53
2022/04/27 08:52:52;;;;;;;;;44.75;35.50;;;;;12.88;51.41;101710.03;5029357;28;45770;-56
2022/04/27 08:55:18;;;;;;;;;37.75;34.75;;;;;12.91;51.25;101691.44;5025135;28;47033;-50
2022/04/27 08:57:43;;;;;;;;;39.80;34.60;;;;;12.84;50.80;101675.72;5012049;28;45525;-54
2022/04/27 09:00:19;;;;;;;;;39.50;36.25;;;;;12.77;50.80;101666.56;5030599;28;45478;-51
2022/04/27 09:02:45;;;;;;;;;43.20;34.20;;;;;13.18;50.84;101711.66;5014863;28;45461;-55
2022/04/27 09:05:20;;;;;;;;;38.00;32.60;;;;;12.70;50.44;101605.09;4996800;28;46225;-53
2022/04/27 09:07:52;;;;;;;;;45.00;37.40;;;;;13.47;50.06;101704.19;5013827;28;45690;-51
2022/04/27 09:10:19;;;;;;;;;45.60;38.60;;;;;13.48;50.29;101691.22;5014558;28;45301;-52
2022/04/27 09:12:49;;;;;;;;;46.60;38.60;;;;;13.61;50.18;101705.03;4980788;28;45406;-55
2022/04/27 09:15:15;;;;;;;;;38.60;35.40;;;;;13.57;49.99;101667.94;5014350;28;45343;-53
2022/04/27 09:23:40;;;;;;;;;39.00;33.40;;;;;14.03;49.04;101709.59;5014175;28;45284;-52
2022/04/27 09:26:19;;;;;;;;;34.80;33.00;;;;;14.04;49.12;101714.03;5012277;28;46204;-52
2022/04/27 09:28:53;;;;;;;;;38.80;35.20;;;;;13.81;49.47;101679.41;5013686;28;45424;-57
2022/04/27 09:31:28;;;;;;;;;40.00;35.20;;;;;13.95;49.18;101719.78;4999799;28;45346;-52
2022/04/27 09:34:01;;;;;;;;;47.40;35.60;;;;;13.85;49.48;101688.09;5016469;28;45529;-52
2022/04/27 09:36:26;;;;;;;;;38.40;35.20;;;;;14.11;49.18;101709.38;5015931;28;48424;-54
2022/04/27 09:38:53;;;;;;;;;41.75;36.50;;;;;14.22;49.34;101703.22;5016907;28;45546;-55
2022/04/27 09:41:46;;;;;;;;;41.00;34.40;;;;;14.20;49.11;101694.28;5016327;28;45423;-53
2022/04/27 09:44:32;;;;;;;;;47.00;36.80;;;;;14.40;48.66;101703.63;5016647;28;45446;-53
2022/04/27 09:47:03;;;;;;;;;43.80;37.40;;;;;14.50;48.68;101706.78;5016784;28;47556;-52
2022/04/27 09:49:31;;;;;;;;;40.40;36.20;;;;;14.43;48.58;101684.72;5016555;28;45776;-49
2022/04/27 09:51:56;;;;;;;;;41.40;36.40;;;;;14.45;48.70;101674.28;5016078;28;45780;-52
2022/04/27 09:54:23;;;;;;;;;43.75;35.25;;;;;14.72;48.25;101704.63;5016925;28;45290;-50
2022/04/27 09:56:55;;;;;;;;;41.00;33.40;;;;;14.65;47.65;101689.97;5016296;28;46763;-54
2022/04/27 09:59:21;;;;;;;;;39.80;34.00;;;;;14.85;47.70;101700.16;5016392;28;45272;-54
2022/04/27 10:01:48;;;;;;;;;42.00;35.60;;;;;14.86;47.85;101685.25;5017202;28;45428;-54
2022/04/27 10:04:13;;;;;;;;;50.20;35.60;;;;;15.00;47.66;101695.19;4998190;28;45573;-56
2022/04/27 10:06:39;;;;;;;;;47.00;40.25;;;;;15.00;47.60;101686.91;5015456;28;45397;-53
2022/04/27 10:09:04;;;;;;;;;38.25;34.00;;;;;15.12;47.31;101691.75;5015504;28;45387;-50
2022/04/27 10:11:32;;;;;;;;;44.00;34.25;;;;;15.13;47.30;101683.25;5017193;28;45463;-54
2022/04/27 10:13:57;;;;;;;;;47.00;39.80;;;;;15.21;47.33;101684.91;5016935;28;45421;-52
2022/04/27 10:16:26;;;;;;;;;43.00;35.25;;;;;15.14;46.92;101662.81;5015960;28;46407;-53
2022/04/27 10:18:52;;;;;;;;;44.20;35.00;;;;;15.36;47.67;101670.78;4995485;28;47591;-55
2022/04/27 10:21:56;;;;;;;;;44.25;35.50;;;;;15.49;47.13;101663.47;5006579;28;45828;-57
2022/04/27 10:24:33;;;;;;;;;40.20;36.40;;;;;15.58;46.87;101668.53;5012573;28;45608;-54
2022/04/27 10:27:36;;;;;;;;;44.20;35.00;;;;;15.75;46.78;101667.13;5012358;28;45579;-54
2022/04/27 10:30:10;;;;;;;;;38.80;33.00;;;;;15.88;46.25;101657.88;4993229;28;45533;-53
2022/04/27 10:32:46;;;;;;;;;48.60;38.20;;;;;15.94;45.94;101644.03;4992995;28;45429;-56
2022/04/27 10:35:11;;;;;;;;;41.00;33.60;;;;;15.93;46.00;101642.34;5027201;28;45951;-55
2022/04/27 10:37:47;;;;;;;;;43.00;36.00;;;;;15.89;45.68;101646.56;5030523;28;45984;-53
2022/04/27 10:40:37;;;;;;;;;40.20;34.20;;;;;16.01;46.14;101632.03;5011113;28;45512;-52
2022/04/27 10:43:06;;;;;;;;;40.20;33.80;;;;;16.15;46.18;101622.53;5001730;27;45502;-57
2022/04/27 10:45:33;;;;;;;;;35.40;31.20;;;;;16.48;44.71;101631.56;5012080;28;45844;-55
2022/04/27 10:47:58;;;;;;;;;37.20;33.80;;;;;16.63;43.70;101631.19;5012401;28;46609;-56
2022/04/27 10:50:30;;;;;;;;;32.75;30.00;;;;;16.56;44.00;101625.72;5011421;28;45448;-56
2022/04/27 10:52:57;;;;;;;;;33.40;30.40;;;;;16.49;44.55;101613.88;5011400;28;45653;-54
2022/04/27 10:55:35;;;;;;;;;31.20;27.60;;;;;16.80;43.35;101623.94;5011059;28;45906;-50
2022/04/27 10:58:19;;;;;;;;;33.20;32.20;;;;;16.91;43.33;101627.84;5026983;28;46320;-55
2022/04/27 11:00:57;;;;;;;;;30.00;29.00;;;;;17.01;43.64;101635.63;5027487;28;45795;-54
2022/04/27 11:03:23;;;;;;;;;44.40;35.00;;;;;17.14;43.06;101629.06;4992469;28;45554;-50
2022/04/27 11:05:49;;;;;;;;;30.00;24.00;;;;;17.21;42.79;101631.75;5019195;28;45477;-50
2022/04/27 11:08:47;;;;;;;;;34.40;28.20;;;;;17.26;42.43;101622.72;5008168;28;47218;-56
2022/04/27 11:11:13;;;;;;;;;28.40;25.60;;;;;17.14;41.81;101584.69;4990918;28;45381;-51
2022/04/27 11:13:39;;;;;;;;;33.40;32.00;;;;;17.40;42.41;101603.97;5005747;28;45484;-51
2022/04/27 11:16:08;;;;;;;;;32.00;28.75;;;;;17.37;41.77;101608.06;4990579;28;45442;-63
2022/04/27 11:18:57;;;;;;;;;24.20;22.60;;;;;17.43;41.38;101615.44;4991306;28;46403;-53
2022/04/27 11:21:24;;;;;;;;;27.40;24.60;;;;;17.36;40.84;101600.81;5006682;28;45566;-53
2022/04/27 11:23:50;;;;;;;;;28.20;26.00;;;;;17.41;41.03;101620.38;5030413;28;46109;-51
2022/04/27 11:26:16;;;;;;;;;22.50;21.25;;;;;17.43;40.97;101598.78;5029431;28;45874;-60
2022/04/27 11:28:45;;;;;;;;;26.50;25.00;;;;;17.59;41.05;101599.16;5029399;28;45883;-53